createdAt,value
2018-09-24T00:02:07.967Z,20.28
2018-09-24T00:04:37.835Z,20.38
2018-09-24T00:07:07.689Z,20.48
2018-09-24T00:09:37.665Z,20.52
2018-09-24T00:12:07.598Z,20.53
2018-09-24T00:14:37.559Z,20.21
2018-09-24T00:17:07.386Z,20.40
2018-09-24T00:19:37.218Z,20.45
2018-09-24T00:22:07.045Z,20.54
2018-09-24T00:24:36.862Z,20.49
2018-09-24T00:27:06.784Z,20.49
2018-09-24T00:29:37.141Z,20.41
2018-09-24T00:32:06.868Z,20.48
2018-09-24T00:34:36.766Z,20.39
2018-09-24T00:37:06.588Z,20.42
2018-09-24T00:39:36.357Z,20.43
2018-09-24T00:42:06.315Z,20.43
2018-09-24T00:44:36.223Z,20.40
2018-09-24T00:47:06.166Z,20.27
2018-09-24T00:49:36.589Z,20.31
2018-09-24T00:52:06.380Z,20.20
2018-09-24T00:54:36.226Z,20.06
2018-09-24T00:57:06.077Z,19.41
2018-09-24T00:59:35.877Z,19.68
2018-09-24T01:02:05.722Z,19.99
2018-09-24T01:04:36.168Z,20.04
2018-09-24T01:07:05.965Z,20.13
2018-09-24T01:09:35.699Z,19.82
2018-09-24T01:12:07.252Z,19.83
2018-09-24T01:14:37.668Z,19.90
2018-09-24T01:17:07.504Z,19.91
2018-09-24T01:19:37.375Z,19.85
2018-09-24T01:22:07.388Z,19.55
2018-09-24T01:24:37.381Z,18.47
2018-09-24T01:27:07.363Z,18.82
2018-09-24T01:29:37.121Z,18.80
2018-09-24T01:32:07.402Z,18.57
2018-09-24T01:34:37.999Z,18.64
2018-09-24T01:37:07.881Z,18.66
2018-09-24T01:39:37.666Z,18.51
2018-09-24T01:42:07.455Z,19.14
2018-09-24T01:44:37.239Z,19.34
2018-09-24T01:47:07.422Z,19.27
2018-09-24T01:49:37.213Z,19.39
2018-09-24T01:52:07.182Z,18.95
2018-09-24T01:54:36.957Z,18.85
2018-09-24T01:57:13.734Z,19.26
2018-09-24T01:59:49.643Z,18.72
2018-09-24T02:02:19.642Z,19.02
2018-09-24T02:04:50.684Z,19.00
2018-09-24T02:07:20.927Z,18.78
2018-09-24T02:09:50.750Z,18.46
2018-09-24T02:12:20.627Z,18.25
2018-09-24T02:14:51.210Z,18.36
2018-09-24T02:17:23.086Z,18.64
2018-09-24T02:19:53.312Z,18.88
2018-09-24T02:22:30.315Z,18.37
2018-09-24T02:25:01.230Z,18.73
2018-09-24T02:27:31.222Z,18.62
2018-09-24T02:30:01.171Z,18.81
2018-09-24T02:32:31.384Z,18.99
2018-09-24T02:35:01.644Z,18.90
2018-09-24T02:37:31.539Z,17.98
2018-09-24T02:40:01.515Z,18.37
2018-09-24T02:42:31.241Z,18.56
2018-09-24T02:45:01.164Z,18.64
2018-09-24T02:47:33.436Z,18.32
2018-09-24T02:50:04.184Z,18.41
2018-09-24T02:52:34.123Z,18.54
2018-09-24T02:55:09.336Z,18.59
2018-09-24T02:57:39.224Z,18.28
2018-09-24T03:00:09.028Z,18.26
2018-09-24T03:02:39.401Z,18.47
2018-09-24T03:05:09.750Z,18.54
2018-09-24T03:07:39.576Z,18.59
2018-09-24T03:10:09.341Z,18.61
2018-09-24T03:12:39.700Z,18.61
2018-09-24T03:15:09.463Z,18.67
2018-09-24T03:17:39.420Z,18.56
2018-09-24T03:20:09.245Z,18.43
2018-09-24T03:22:39.177Z,18.39
2018-09-24T03:25:09.302Z,18.28
2018-09-24T03:27:39.089Z,18.32
2018-09-24T03:30:08.901Z,18.48
2018-09-24T03:32:42.162Z,18.47
2018-09-24T03:35:12.399Z,18.23
2018-09-24T03:37:42.188Z,17.97
2018-09-24T03:40:12.103Z,17.78
2018-09-24T03:42:42.020Z,18.01
2018-09-24T03:45:11.822Z,18.16
2018-09-24T03:47:41.691Z,17.93
2018-09-24T03:50:11.418Z,17.27
2018-09-24T03:52:41.313Z,17.26
2018-09-24T03:55:11.090Z,17.58
2018-09-24T03:57:41.272Z,17.91
2018-09-24T04:00:11.131Z,18.06
2018-09-24T04:02:41.733Z,18.08
2018-09-24T04:05:17.461Z,18.08
2018-09-24T04:07:52.231Z,17.78
2018-09-24T04:10:27.144Z,17.96
2018-09-24T04:13:02.203Z,17.99
2018-09-24T04:15:37.448Z,17.90
2018-09-24T04:18:12.473Z,17.96
2018-09-24T04:20:47.426Z,17.95
2018-09-24T04:23:22.269Z,17.94
2018-09-24T04:25:57.765Z,18.02
2018-09-24T04:28:32.739Z,18.23
2018-09-24T04:31:07.676Z,18.14
2018-09-24T04:33:42.823Z,18.20
2018-09-24T04:36:18.330Z,18.25
2018-09-24T04:38:53.156Z,18.25
2018-09-24T04:41:28.044Z,18.21
2018-09-24T04:44:02.747Z,18.24
2018-09-24T04:46:37.766Z,18.58
2018-09-24T04:49:12.626Z,18.76
2018-09-24T04:51:47.541Z,18.76
2018-09-24T04:54:22.563Z,18.55
2018-09-24T04:56:58.231Z,18.36
2018-09-24T04:59:32.972Z,17.90
2018-09-24T05:02:07.852Z,18.14
2018-09-24T05:04:42.847Z,18.34
2018-09-24T05:07:17.565Z,18.21
2018-09-24T05:09:52.447Z,18.67
2018-09-24T05:12:27.118Z,18.14
2018-09-24T05:15:01.876Z,18.38
2018-09-24T05:17:37.509Z,18.58
2018-09-24T05:20:12.248Z,18.72
2018-09-24T05:22:47.073Z,18.45
2018-09-24T05:25:22.024Z,18.42
2018-09-24T05:27:57.591Z,18.49
2018-09-24T05:30:32.425Z,18.41
2018-09-24T05:33:07.404Z,18.11
2018-09-24T05:35:42.279Z,18.28
2018-09-24T05:38:17.346Z,18.36
2018-09-24T05:40:52.106Z,18.41
2018-09-24T05:43:27.078Z,18.67
2018-09-24T05:46:02.546Z,18.18
2018-09-24T05:48:37.395Z,18.22
2018-09-24T05:51:12.939Z,18.01
2018-09-24T05:53:47.626Z,18.13
2018-09-24T05:56:22.406Z,18.66
2018-09-24T05:58:58.100Z,18.93
2018-09-24T06:01:33.060Z,19.29
2018-09-24T06:04:07.891Z,19.78
2018-09-24T06:06:42.823Z,20.97
2018-09-24T06:09:17.923Z,21.15
2018-09-24T06:11:53.002Z,20.07
2018-09-24T06:14:27.660Z,20.64
2018-09-24T06:17:02.634Z,20.80
2018-09-24T06:19:37.660Z,21.11
2018-09-24T06:22:12.545Z,21.03
2018-09-24T06:24:47.650Z,21.54
2018-09-24T06:27:22.513Z,22.43
2018-09-24T06:29:57.542Z,21.71
2018-09-24T06:32:32.652Z,22.48
2018-09-24T06:35:07.531Z,23.16
2018-09-24T06:37:42.270Z,23.14
2018-09-24T06:40:18.230Z,23.32
2018-09-24T06:42:53.158Z,24.71
2018-09-24T06:45:28.035Z,24.44
2018-09-24T06:48:02.930Z,24.49
2018-09-24T06:50:38.869Z,25.01
2018-09-24T06:53:13.692Z,25.51
2018-09-24T06:55:48.566Z,25.79
2018-09-24T06:58:23.435Z,25.82
2018-09-24T07:00:58.896Z,25.64
2018-09-24T07:03:33.839Z,25.93
2018-09-24T07:06:08.796Z,25.91
2018-09-24T07:08:43.697Z,25.49
2018-09-24T07:11:19.613Z,26.21
2018-09-24T07:13:54.446Z,26.43
2018-09-24T07:16:29.263Z,26.97
2018-09-24T07:19:04.031Z,27.38
2018-09-24T07:21:39.384Z,27.78
2018-09-24T07:24:14.166Z,27.73
2018-09-24T07:26:49.009Z,28.09
2018-09-24T07:29:23.921Z,27.67
2018-09-24T07:31:59.527Z,28.14
2018-09-24T07:34:34.316Z,27.98
2018-09-24T07:37:09.383Z,28.72
2018-09-24T07:39:44.504Z,28.49
2018-09-24T07:42:20.033Z,28.41
2018-09-24T07:44:54.910Z,28.70
2018-09-24T07:47:29.592Z,28.74
2018-09-24T07:50:04.462Z,29.57
2018-09-24T07:52:40.346Z,29.93
2018-09-24T07:55:15.142Z,30.26
2018-09-24T07:57:52.329Z,29.41
2018-09-24T08:00:27.238Z,28.94
2018-09-24T08:03:03.306Z,28.94
2018-09-24T08:05:38.150Z,30.36
2018-09-24T08:08:12.824Z,30.68
2018-09-24T08:10:47.662Z,29.75
2018-09-24T08:13:23.217Z,30.88
2018-09-24T08:15:58.030Z,30.86
2018-09-24T08:18:32.853Z,31.70
2018-09-24T08:21:07.668Z,32.11
2018-09-24T08:23:42.861Z,32.40
2018-09-24T08:26:17.738Z,31.87
2018-09-24T08:28:52.519Z,32.09
2018-09-24T08:31:27.301Z,32.25
2018-09-24T08:34:02.826Z,32.21
2018-09-24T08:36:37.661Z,32.44
2018-09-24T08:39:13.760Z,32.62
2018-09-24T08:41:48.964Z,32.14
2018-09-24T08:44:24.727Z,33.22
2018-09-24T08:46:59.561Z,33.14
2018-09-24T08:49:34.418Z,32.58
2018-09-24T08:52:09.193Z,33.39
2018-09-24T08:54:44.433Z,33.71
2018-09-24T08:57:19.411Z,33.67
2018-09-24T08:59:54.284Z,34.02
2018-09-24T09:02:29.138Z,33.54
2018-09-24T09:05:04.748Z,33.57
2018-09-24T09:07:39.644Z,34.35
2018-09-24T09:10:14.456Z,34.79
2018-09-24T09:12:49.483Z,34.55
2018-09-24T09:15:24.990Z,35.02
2018-09-24T09:18:00.128Z,34.89
2018-09-24T09:20:34.909Z,34.80
2018-09-24T09:23:10.292Z,35.74
2018-09-24T09:25:45.159Z,35.72
2018-09-24T09:28:20.068Z,35.59
2018-09-24T09:30:55.033Z,34.48
2018-09-24T09:33:30.012Z,35.79
2018-09-24T09:36:04.786Z,35.49
2018-09-24T09:38:39.538Z,33.82
2018-09-24T09:41:14.439Z,34.03
2018-09-24T09:43:49.354Z,35.46
2018-09-24T09:46:27.228Z,35.72
2018-09-24T09:49:02.019Z,35.18
2018-09-24T09:51:36.883Z,35.80
2018-09-24T09:54:11.761Z,36.28
2018-09-24T09:56:46.538Z,37.02
2018-09-24T09:59:21.691Z,36.17
2018-09-24T10:01:56.567Z,36.91
2018-09-24T10:04:31.283Z,35.59
2018-09-24T10:07:06.215Z,35.76
2018-09-24T10:09:41.185Z,35.22
2018-09-24T10:12:16.151Z,35.87
2018-09-24T10:14:50.798Z,37.05
2018-09-24T10:17:26.642Z,36.49
2018-09-24T10:20:01.701Z,36.64
2018-09-24T10:22:36.672Z,37.41
2018-09-24T10:25:11.703Z,36.39
2018-09-24T10:27:46.982Z,37.55
2018-09-24T10:30:21.777Z,38.45
2018-09-24T10:32:56.777Z,36.87
2018-09-24T10:35:31.653Z,38.52
2018-09-24T10:38:07.363Z,38.84
2018-09-24T10:40:42.179Z,36.51
2018-09-24T10:43:19.315Z,37.10
2018-09-24T10:45:54.603Z,38.10
2018-09-24T10:48:30.318Z,36.44
2018-09-24T10:51:05.314Z,36.63
2018-09-24T10:53:40.216Z,36.81
2018-09-24T10:56:15.185Z,37.02
2018-09-24T10:58:51.129Z,37.32
2018-09-24T11:01:25.970Z,37.12
2018-09-24T11:04:01.944Z,37.22
2018-09-24T11:06:36.912Z,37.04
2018-09-24T11:09:14.150Z,37.62
2018-09-24T11:11:49.169Z,37.45
2018-09-24T11:14:25.101Z,37.18
2018-09-24T11:17:00.645Z,38.16
2018-09-24T11:19:35.765Z,36.17
2018-09-24T11:22:11.598Z,35.86
2018-09-24T11:24:46.598Z,36.67
2018-09-24T11:27:21.630Z,37.64
2018-09-24T11:29:56.696Z,37.02
2018-09-24T11:32:31.392Z,36.18
2018-09-24T11:35:06.792Z,36.67
2018-09-24T11:37:42.321Z,36.01
2018-09-24T11:40:17.881Z,37.12
2018-09-24T11:42:52.636Z,37.60
2018-09-24T11:45:27.642Z,36.62
2018-09-24T11:48:02.653Z,37.75
2018-09-24T11:50:38.731Z,37.70
2018-09-24T11:53:13.595Z,38.19
2018-09-24T11:55:48.509Z,37.85
2018-09-24T11:58:23.545Z,38.09
2018-09-24T12:00:58.293Z,38.30
2018-09-24T12:03:33.187Z,38.35
2018-09-24T12:06:08.182Z,38.46
2018-09-24T12:08:43.106Z,38.05
2018-09-24T12:11:18.645Z,37.13
2018-09-24T12:13:53.466Z,36.58
2018-09-24T12:16:28.253Z,36.09
2018-09-24T12:19:03.217Z,36.53
2018-09-24T12:21:38.700Z,37.91
2018-09-24T12:24:13.708Z,37.32
2018-09-24T12:26:48.379Z,37.16
2018-09-24T12:29:23.324Z,37.28
2018-09-24T12:31:59.230Z,37.22
2018-09-24T12:34:34.187Z,35.82
2018-09-24T12:37:09.314Z,35.53
2018-09-24T12:39:44.262Z,35.80
2018-09-24T12:42:19.846Z,36.27
2018-09-24T12:44:55.007Z,35.90
2018-09-24T12:47:36.954Z,36.43
2018-09-24T12:50:12.169Z,36.25
2018-09-24T12:52:47.049Z,36.62
2018-09-24T12:55:22.923Z,36.41
2018-09-24T12:57:57.796Z,35.69
2018-09-24T13:00:32.522Z,36.65
2018-09-24T13:03:10.314Z,36.78
2018-09-24T13:05:45.118Z,35.96
2018-09-24T13:08:20.256Z,35.78
2018-09-24T13:10:55.955Z,36.37
2018-09-24T13:13:30.928Z,36.51
2018-09-24T13:16:05.826Z,35.96
2018-09-24T13:18:40.882Z,36.84
2018-09-24T13:21:16.503Z,35.69
2018-09-24T13:23:51.161Z,36.24
2018-09-24T13:26:26.150Z,35.30
2018-09-24T13:29:01.032Z,35.82
2018-09-24T13:31:36.742Z,35.53
2018-09-24T13:34:11.657Z,35.44
2018-09-24T13:36:46.683Z,35.69
2018-09-24T13:39:21.600Z,35.29
2018-09-24T13:41:57.013Z,35.01
2018-09-24T13:44:31.588Z,35.33
2018-09-24T13:47:06.618Z,35.73
2018-09-24T13:49:41.403Z,34.76
2018-09-24T13:52:17.267Z,34.94
2018-09-24T13:54:52.047Z,34.48
2018-09-24T13:57:26.969Z,33.81
2018-09-24T14:00:01.879Z,34.04
2018-09-24T14:02:37.618Z,33.75
2018-09-24T14:05:12.371Z,33.71
2018-09-24T14:07:47.269Z,34.22
2018-09-24T14:10:22.175Z,33.21
2018-09-24T14:12:57.722Z,33.56
2018-09-24T14:15:32.610Z,33.56
2018-09-24T14:18:07.569Z,34.35
2018-09-24T14:20:42.315Z,33.45
2018-09-24T14:23:18.538Z,33.59
2018-09-24T14:25:53.338Z,33.72
2018-09-24T14:28:28.105Z,33.53
2018-09-24T14:31:02.992Z,33.60
2018-09-24T14:33:39.191Z,33.56
2018-09-24T14:36:14.329Z,33.45
2018-09-24T14:38:49.227Z,32.67
2018-09-24T14:41:23.898Z,32.42
2018-09-24T14:43:59.822Z,32.53
2018-09-24T14:46:34.543Z,32.61
2018-09-24T14:49:09.224Z,32.30
2018-09-24T14:51:44.117Z,32.65
2018-09-24T14:54:19.304Z,32.35
2018-09-24T14:56:54.075Z,32.27
2018-09-24T14:59:28.964Z,32.69
2018-09-24T15:02:03.913Z,32.62
2018-09-24T15:04:39.211Z,31.63
2018-09-24T15:07:14.102Z,31.63
2018-09-24T15:09:48.922Z,31.11
2018-09-24T15:12:23.652Z,31.03
2018-09-24T15:14:59.009Z,31.22
2018-09-24T15:17:33.826Z,31.03
2018-09-24T15:20:08.877Z,31.09
2018-09-24T15:22:43.740Z,30.65
2018-09-24T15:25:18.916Z,30.16
2018-09-24T15:27:53.746Z,30.10
2018-09-24T15:30:28.694Z,30.14
2018-09-24T15:33:03.589Z,30.26
2018-09-24T15:35:38.442Z,29.59
2018-09-24T15:38:13.152Z,29.34
2018-09-24T15:40:48.059Z,29.33
2018-09-24T15:43:22.941Z,29.26
2018-09-24T15:45:58.625Z,29.06
2018-09-24T15:48:33.531Z,29.17
2018-09-24T15:51:08.477Z,29.06
2018-09-24T15:53:43.403Z,29.36
2018-09-24T15:56:18.985Z,27.78
2018-09-24T15:58:53.670Z,28.86
2018-09-24T16:01:28.641Z,28.80
2018-09-24T16:04:03.591Z,28.64
2018-09-24T16:06:38.726Z,28.58
2018-09-24T16:09:14.892Z,28.41
2018-09-24T16:11:49.821Z,28.13
2018-09-24T16:14:24.693Z,28.50
2018-09-24T16:16:59.555Z,28.70
2018-09-24T16:19:34.299Z,28.47
2018-09-24T16:22:09.284Z,28.14
2018-09-24T16:24:44.111Z,27.98
2018-09-24T16:27:20.913Z,27.97
2018-09-24T16:29:55.768Z,28.03
2018-09-24T16:32:30.648Z,28.07
2018-09-24T16:35:05.474Z,27.96
2018-09-24T16:37:41.043Z,28.23
2018-09-24T16:40:16.004Z,27.90
2018-09-24T16:42:50.961Z,27.66
2018-09-24T16:45:25.829Z,27.77
2018-09-24T16:48:00.940Z,27.28
2018-09-24T16:50:35.750Z,27.02
2018-09-24T16:53:11.018Z,26.91
2018-09-24T16:55:46.081Z,26.98
2018-09-24T16:58:21.825Z,26.64
2018-09-24T17:00:56.875Z,26.39
2018-09-24T17:03:31.766Z,25.71
2018-09-24T17:06:06.750Z,25.48
2018-09-24T17:08:41.723Z,25.03
2018-09-24T17:11:18.114Z,24.78
2018-09-24T17:13:53.142Z,24.79
2018-09-24T17:16:28.058Z,24.79
2018-09-24T17:19:02.954Z,25.06
2018-09-24T17:21:37.925Z,25.20
2018-09-24T17:24:12.824Z,24.91
2018-09-24T17:26:47.529Z,24.26
2018-09-24T17:29:23.195Z,24.23
2018-09-24T17:31:58.261Z,24.51
2018-09-24T17:34:33.229Z,23.88
2018-09-24T17:37:08.084Z,24.07
2018-09-24T17:39:44.095Z,23.55
2018-09-24T17:42:18.903Z,23.64
2018-09-24T17:44:53.838Z,24.01
2018-09-24T17:47:28.565Z,23.90
2018-09-24T17:50:03.847Z,23.98
2018-09-24T17:52:38.682Z,23.96
2018-09-24T17:55:13.590Z,23.62
2018-09-24T17:57:48.289Z,23.85
2018-09-24T18:00:23.887Z,24.06
2018-09-24T18:02:58.512Z,23.71
2018-09-24T18:05:33.297Z,23.91
2018-09-24T18:08:08.187Z,22.46
2018-09-24T18:10:43.624Z,23.89
2018-09-24T18:13:18.317Z,23.60
2018-09-24T18:15:53.184Z,23.55
2018-09-24T18:18:28.021Z,23.44
2018-09-24T18:21:03.321Z,23.36
2018-09-24T18:23:38.089Z,22.97
2018-09-24T18:26:12.846Z,22.70
2018-09-24T18:28:47.673Z,22.31
2018-09-24T18:31:23.274Z,22.23
2018-09-24T18:33:59.073Z,21.98
2018-09-24T18:36:34.001Z,21.76
2018-09-24T18:39:08.872Z,21.78
2018-09-24T18:41:44.370Z,22.33
2018-09-24T18:44:19.307Z,21.67
2018-09-24T18:46:54.070Z,21.35
2018-09-24T18:49:28.956Z,21.43
2018-09-24T18:52:03.979Z,21.06
2018-09-24T18:54:38.774Z,20.95
2018-09-24T18:57:13.771Z,20.87
2018-09-24T18:59:48.614Z,20.80
2018-09-24T19:02:24.499Z,21.01
2018-09-24T19:04:59.293Z,21.00
2018-09-24T19:07:34.205Z,21.43
2018-09-24T19:10:09.015Z,21.36
2018-09-24T19:12:45.049Z,21.50
2018-09-24T19:15:19.864Z,21.01
2018-09-24T19:17:54.704Z,21.01
2018-09-24T19:20:29.640Z,20.98
2018-09-24T19:23:04.986Z,20.95
2018-09-24T19:25:39.970Z,20.56
2018-09-24T19:28:14.895Z,20.48
2018-09-24T19:30:49.761Z,20.69
2018-09-24T19:33:26.019Z,20.24
2018-09-24T19:36:00.992Z,20.35
2018-09-24T19:38:35.971Z,20.35
2018-09-24T19:41:11.526Z,20.40
2018-09-24T19:43:47.218Z,20.53
2018-09-24T19:46:22.001Z,20.31
2018-09-24T19:48:56.853Z,20.53
2018-09-24T19:51:32.119Z,20.78
2018-09-24T19:54:07.894Z,21.00
2018-09-24T19:56:43.375Z,20.82
2018-09-24T19:59:19.142Z,21.22
2018-09-24T20:01:54.085Z,20.93
2018-09-24T20:04:30.016Z,20.96
2018-09-24T20:07:04.978Z,20.59
2018-09-24T20:09:40.016Z,20.44
2018-09-24T20:12:15.031Z,19.97
2018-09-24T20:14:51.854Z,19.60
2018-09-24T20:17:28.007Z,19.61
2018-09-24T20:20:03.883Z,19.69
2018-09-24T20:22:38.862Z,19.85
2018-09-24T20:25:15.731Z,19.89
2018-09-24T20:27:51.026Z,19.69
2018-09-24T20:30:26.599Z,19.76
2018-09-24T20:33:01.653Z,19.33
2018-09-24T20:35:37.866Z,19.61
2018-09-24T20:38:12.742Z,19.67
2018-09-24T20:40:48.422Z,19.69
2018-09-24T20:43:23.479Z,20.03
2018-09-24T20:45:59.357Z,19.82
2018-09-24T20:48:35.482Z,19.81
2018-09-24T20:51:11.070Z,19.07
2018-09-24T20:53:46.089Z,19.30
2018-09-24T20:56:21.373Z,19.20
2018-09-24T20:58:56.252Z,19.64
2018-09-24T21:01:31.153Z,20.05
2018-09-24T21:04:06.006Z,19.47
2018-09-24T21:06:41.584Z,19.97
2018-09-24T21:09:16.572Z,19.86
2018-09-24T21:11:51.731Z,19.31
2018-09-24T21:14:26.876Z,19.46
2018-09-24T21:17:02.038Z,18.94
2018-09-24T21:19:36.955Z,19.00
2018-09-24T21:22:11.940Z,19.44
2018-09-24T21:24:46.806Z,18.75
2018-09-24T21:27:22.637Z,18.72
2018-09-24T21:29:57.547Z,18.54
2018-09-24T21:32:32.501Z,18.67
2018-09-24T21:35:07.553Z,19.18
2018-09-24T21:37:43.429Z,19.22
2018-09-24T21:40:18.285Z,19.12
2018-09-24T21:42:53.240Z,19.04
2018-09-24T21:45:28.213Z,19.24
2018-09-24T21:48:03.024Z,18.77
2018-09-24T21:50:37.928Z,19.08
2018-09-24T21:53:12.967Z,19.37
2018-09-24T21:55:47.898Z,19.08
2018-09-24T21:58:22.855Z,18.91
2018-09-24T22:00:57.658Z,18.65
2018-09-24T22:03:32.645Z,18.53
2018-09-24T22:06:07.634Z,18.24
2018-09-24T22:08:43.116Z,17.80
2018-09-24T22:11:18.000Z,17.67
2018-09-24T22:13:52.837Z,18.01
2018-09-24T22:16:27.835Z,18.27
2018-09-24T22:19:03.570Z,18.23
2018-09-24T22:21:38.451Z,18.21
2018-09-24T22:24:13.385Z,18.30
2018-09-24T22:26:48.463Z,18.66
2018-09-24T22:29:23.821Z,18.15
2018-09-24T22:31:58.656Z,18.17
2018-09-24T22:34:33.741Z,18.15
2018-09-24T22:37:08.770Z,17.65
2018-09-24T22:39:44.153Z,17.59
2018-09-24T22:42:18.981Z,17.65
2018-09-24T22:44:53.892Z,17.65
2018-09-24T22:47:28.807Z,17.81
2018-09-24T22:50:04.070Z,18.07
2018-09-24T22:52:38.861Z,18.32
2018-09-24T22:55:13.478Z,18.31
2018-09-24T22:57:48.373Z,18.35
2018-09-24T23:00:23.858Z,18.24
2018-09-24T23:02:58.810Z,18.22
2018-09-24T23:05:33.601Z,18.30
2018-09-24T23:08:08.599Z,18.46
2018-09-24T23:10:44.036Z,18.47
2018-09-24T23:13:18.873Z,18.56
2018-09-24T23:15:53.889Z,18.24
2018-09-24T23:18:28.769Z,17.75
2018-09-24T23:21:04.097Z,17.80
2018-09-24T23:23:38.952Z,17.97
2018-09-24T23:26:13.911Z,18.02
2018-09-24T23:28:48.809Z,18.31
2018-09-24T23:31:23.870Z,18.12
2018-09-24T23:33:58.874Z,17.55
2018-09-24T23:36:33.775Z,17.24
2018-09-24T23:39:08.656Z,17.13
2018-09-24T23:41:43.432Z,17.18
2018-09-24T23:44:18.283Z,16.86
2018-09-24T23:46:53.130Z,17.02
2018-09-24T23:49:27.844Z,17.19
2018-09-24T23:52:03.301Z,17.08
2018-09-24T23:54:38.124Z,17.34
2018-09-24T23:57:12.972Z,17.13
2018-09-24T23:59:47.791Z,16.85
